Tahsis, Canada
Current Conditions -  °F | °C
As of 10:00 PM on Wednesday 26 Nov 2014 (Local Time) from CYZT Reporting Station
Light Rain Light Rain  
Wind Chill: 42°   Ceiling: 2400
Heat Index: 46°   Visibility: 8mi
Dew Point: 46°   Wind: 9mph
Humidity: 100%   Direction: 150°SSE
Pressure: 29.54"   Gusts: 26mph
Location:  49.92°N, 126.67°W
Report Text: CYZT 270600Z 15008G23KT 110V180 8SM -RA FEW007 BKN024 OVC036 08/08 A2954 RMK SF2SC3SC3 /R10/ PRESRR SLP004
Loading
Personal Weather Stations






























Interactive Weather Map New forecast layout! Learn more

10-Day Weather Forecast

Advertisements
Track Severe Weather on mobile